sensor_id;sensor_type;location;lat;lon;timestamp;pressure;altitude;pressure_sealevel;temperature;humidity
44839;BME280;30576;42.098;24.876;2023-02-10T00:00:56;102005.78;;;-3.92;57.83
44839;BME280;30576;42.098;24.876;2023-02-10T00:03:24;102010.34;;;-3.78;56.91
44839;BME280;30576;42.098;24.876;2023-02-10T00:05:49;102003.44;;;-3.89;57.59
44839;BME280;30576;42.098;24.876;2023-02-10T00:08:14;102007.31;;;-3.94;57.64
44839;BME280;30576;42.098;24.876;2023-02-10T00:10:39;102010.59;;;-3.74;57.20
44839;BME280;30576;42.098;24.876;2023-02-10T00:13:05;102008.72;;;-3.87;57.89
44839;BME280;30576;42.098;24.876;2023-02-10T00:15:30;102010.00;;;-3.92;57.87
44839;BME280;30576;42.098;24.876;2023-02-10T00:17:58;102012.28;;;-3.75;57.21
44839;BME280;30576;42.098;24.876;2023-02-10T00:20:23;102013.28;;;-3.73;57.25
44839;BME280;30576;42.098;24.876;2023-02-10T00:22:57;102013.22;;;-3.85;57.78
44839;BME280;30576;42.098;24.876;2023-02-10T00:25:23;102017.84;;;-3.81;57.87
44839;BME280;30576;42.098;24.876;2023-02-10T00:27:50;102014.25;;;-3.83;57.90
44839;BME280;30576;42.098;24.876;2023-02-10T00:30:16;102008.25;;;-4.04;57.92
44839;BME280;30576;42.098;24.876;2023-02-10T00:32:41;102009.28;;;-4.02;57.95
44839;BME280;30576;42.098;24.876;2023-02-10T00:35:07;102006.53;;;-3.93;58.39
44839;BME280;30576;42.098;24.876;2023-02-10T00:37:33;102008.22;;;-3.93;57.96
44839;BME280;30576;42.098;24.876;2023-02-10T00:39:58;102005.81;;;-4.02;57.27
44839;BME280;30576;42.098;24.876;2023-02-10T00:42:24;102007.78;;;-4.20;57.65
44839;BME280;30576;42.098;24.876;2023-02-10T00:44:49;102003.13;;;-4.14;57.42
44839;BME280;30576;42.098;24.876;2023-02-10T00:47:20;102003.53;;;-4.20;57.82
44839;BME280;30576;42.098;24.876;2023-02-10T00:49:45;101990.94;;;-4.27;58.06
44839;BME280;30576;42.098;24.876;2023-02-10T00:52:10;101988.75;;;-4.33;58.39
44839;BME280;30576;42.098;24.876;2023-02-10T00:54:35;101994.56;;;-4.35;58.46
44839;BME280;30576;42.098;24.876;2023-02-10T00:57:01;101996.78;;;-4.50;58.36
44839;BME280;30576;42.098;24.876;2023-02-10T00:59:29;101991.47;;;-4.41;58.06
44839;BME280;30576;42.098;24.876;2023-02-10T01:01:54;101995.00;;;-4.61;58.62
44839;BME280;30576;42.098;24.876;2023-02-10T01:04:19;101996.91;;;-4.59;58.30
44839;BME280;30576;42.098;24.876;2023-02-10T01:06:47;102001.97;;;-4.71;58.83
44839;BME280;30576;42.098;24.876;2023-02-10T01:09:12;101997.66;;;-4.50;58.94
44839;BME280;30576;42.098;24.876;2023-02-10T01:11:49;101991.38;;;-4.53;58.59
44839;BME280;30576;42.098;24.876;2023-02-10T01:14:24;101989.09;;;-5.01;59.32
44839;BME280;30576;42.098;24.876;2023-02-10T01:16:49;101988.44;;;-4.89;59.89
44839;BME280;30576;42.098;24.876;2023-02-10T01:19:15;101985.59;;;-4.81;59.45
44839;BME280;30576;42.098;24.876;2023-02-10T01:21:40;101980.31;;;-4.62;59.08
44839;BME280;30576;42.098;24.876;2023-02-10T01:24:05;101980.94;;;-4.65;59.30
44839;BME280;30576;42.098;24.876;2023-02-10T01:26:31;101980.19;;;-4.64;59.09
44839;BME280;30576;42.098;24.876;2023-02-10T01:28:57;101976.97;;;-4.82;58.89
44839;BME280;30576;42.098;24.876;2023-02-10T01:31:22;101975.69;;;-4.77;58.93
44839;BME280;30576;42.098;24.876;2023-02-10T01:33:51;101971.69;;;-4.73;58.95
44839;BME280;30576;42.098;24.876;2023-02-10T01:36:18;101972.06;;;-4.58;59.36
44839;BME280;30576;42.098;24.876;2023-02-10T01:38:44;101967.81;;;-4.68;59.45
44839;BME280;30576;42.098;24.876;2023-02-10T01:41:10;101969.88;;;-4.64;59.51
44839;BME280;30576;42.098;24.876;2023-02-10T01:46:42;101968.19;;;-4.63;59.36
44839;BME280;30576;42.098;24.876;2023-02-10T01:49:08;101964.47;;;-4.77;59.77
44839;BME280;30576;42.098;24.876;2023-02-10T01:51:38;101971.81;;;-4.82;60.17
44839;BME280;30576;42.098;24.876;2023-02-10T01:54:13;101963.97;;;-4.73;59.78
44839;BME280;30576;42.098;24.876;2023-02-10T01:56:44;101966.78;;;-4.80;60.00
44839;BME280;30576;42.098;24.876;2023-02-10T01:59:11;101962.16;;;-4.64;59.66
44839;BME280;30576;42.098;24.876;2023-02-10T02:01:40;101958.56;;;-4.76;59.81
44839;BME280;30576;42.098;24.876;2023-02-10T02:04:16;101953.66;;;-4.73;60.25
44839;BME280;30576;42.098;24.876;2023-02-10T02:06:42;101953.66;;;-4.63;59.57
44839;BME280;30576;42.098;24.876;2023-02-10T02:09:15;101951.16;;;-4.51;59.45
44839;BME280;30576;42.098;24.876;2023-02-10T02:11:56;101945.84;;;-4.32;59.38
44839;BME280;30576;42.098;24.876;2023-02-10T02:19:46;101936.13;;;-4.77;59.55
44839;BME280;30576;42.098;24.876;2023-02-10T02:35:43;101937.66;;;-4.59;59.43
44839;BME280;30576;42.098;24.876;2023-02-10T02:38:10;101924.25;;;-4.55;58.24
44839;BME280;30576;42.098;24.876;2023-02-10T02:40:36;101931.97;;;-4.55;57.40
44839;BME280;30576;42.098;24.876;2023-02-10T02:43:04;101935.63;;;-4.73;57.42
44839;BME280;30576;42.098;24.876;2023-02-10T02:45:37;101932.69;;;-4.78;57.02
44839;BME280;30576;42.098;24.876;2023-02-10T02:53:17;101927.91;;;-4.63;57.13
44839;BME280;30576;42.098;24.876;2023-02-10T02:56:07;101931.72;;;-4.58;56.89
44839;BME280;30576;42.098;24.876;2023-02-10T02:58:46;101927.53;;;-4.78;56.60
44839;BME280;30576;42.098;24.876;2023-02-10T03:01:36;101932.03;;;-4.86;56.62
44839;BME280;30576;42.098;24.876;2023-02-10T03:03:59;101932.28;;;-4.72;57.01
44839;BME280;30576;42.098;24.876;2023-02-10T03:06:34;101933.19;;;-4.82;57.07
44839;BME280;30576;42.098;24.876;2023-02-10T03:09:05;101930.00;;;-5.00;58.27
44839;BME280;30576;42.098;24.876;2023-02-10T03:11:30;101927.44;;;-5.00;58.80
44839;BME280;30576;42.098;24.876;2023-02-10T03:13:56;101929.22;;;-5.09;58.96
44839;BME280;30576;42.098;24.876;2023-02-10T03:16:21;101932.84;;;-5.28;60.46
44839;BME280;30576;42.098;24.876;2023-02-10T03:18:46;101937.31;;;-5.46;59.95
44839;BME280;30576;42.098;24.876;2023-02-10T03:21:14;101936.13;;;-5.60;60.91
44839;BME280;30576;42.098;24.876;2023-02-10T03:23:42;101931.69;;;-5.31;60.26
44839;BME280;30576;42.098;24.876;2023-02-10T03:26:08;101928.94;;;-5.02;59.83
44839;BME280;30576;42.098;24.876;2023-02-10T03:28:33;101932.72;;;-4.98;59.07
44839;BME280;30576;42.098;24.876;2023-02-10T03:31:01;101936.16;;;-4.98;58.63
44839;BME280;30576;42.098;24.876;2023-02-10T03:33:26;101930.66;;;-5.23;59.58
44839;BME280;30576;42.098;24.876;2023-02-10T03:35:54;101936.03;;;-4.89;59.38
44839;BME280;30576;42.098;24.876;2023-02-10T03:38:22;101936.19;;;-4.88;59.13
44839;BME280;30576;42.098;24.876;2023-02-10T03:40:51;101932.25;;;-4.62;58.50
44839;BME280;30576;42.098;24.876;2023-02-10T03:43:20;101930.47;;;-4.73;58.13
44839;BME280;30576;42.098;24.876;2023-02-10T03:45:53;101925.44;;;-4.72;58.99
44839;BME280;30576;42.098;24.876;2023-02-10T03:48:20;101929.16;;;-4.68;58.20
44839;BME280;30576;42.098;24.876;2023-02-10T03:50:47;101928.91;;;-4.71;58.36
44839;BME280;30576;42.098;24.876;2023-02-10T03:53:16;101924.94;;;-4.88;58.57
44839;BME280;30576;42.098;24.876;2023-02-10T03:55:44;101922.75;;;-4.83;58.83
44839;BME280;30576;42.098;24.876;2023-02-10T03:58:11;101924.81;;;-4.79;58.25
44839;BME280;30576;42.098;24.876;2023-02-10T04:00:39;101925.25;;;-4.95;58.62
44839;BME280;30576;42.098;24.876;2023-02-10T04:03:05;101925.75;;;-5.10;59.08
44839;BME280;30576;42.098;24.876;2023-02-10T04:05:30;101921.66;;;-5.08;58.95
44839;BME280;30576;42.098;24.876;2023-02-10T04:07:55;101924.06;;;-5.19;59.01
44839;BME280;30576;42.098;24.876;2023-02-10T04:10:21;101921.88;;;-5.25;59.37
44839;BME280;30576;42.098;24.876;2023-02-10T04:12:47;101917.88;;;-5.11;59.07
44839;BME280;30576;42.098;24.876;2023-02-10T04:15:12;101921.66;;;-5.08;58.84
44839;BME280;30576;42.098;24.876;2023-02-10T04:17:37;101927.66;;;-5.17;58.73
44839;BME280;30576;42.098;24.876;2023-02-10T04:20:03;101920.06;;;-5.57;59.10
44839;BME280;30576;42.098;24.876;2023-02-10T04:22:34;101924.06;;;-5.61;59.79
44839;BME280;30576;42.098;24.876;2023-02-10T04:24:59;101927.00;;;-5.66;60.14
44839;BME280;30576;42.098;24.876;2023-02-10T04:27:26;101920.91;;;-5.87;60.37
44839;BME280;30576;42.098;24.876;2023-02-10T04:29:52;101914.38;;;-5.73;61.03
44839;BME280;30576;42.098;24.876;2023-02-10T04:32:20;101926.59;;;-5.71;61.07
44839;BME280;30576;42.098;24.876;2023-02-10T04:34:48;101925.31;;;-5.76;60.34
44839;BME280;30576;42.098;24.876;2023-02-10T04:37:13;101924.56;;;-5.65;60.30
44839;BME280;30576;42.098;24.876;2023-02-10T04:39:42;101928.84;;;-5.45;60.55
44839;BME280;30576;42.098;24.876;2023-02-10T04:42:31;101931.16;;;-5.48;60.26
44839;BME280;30576;42.098;24.876;2023-02-10T04:44:59;101935.25;;;-5.40;60.06
44839;BME280;30576;42.098;24.876;2023-02-10T04:47:25;101930.91;;;-5.30;60.08
44839;BME280;30576;42.098;24.876;2023-02-10T04:49:52;101935.00;;;-5.22;59.58
44839;BME280;30576;42.098;24.876;2023-02-10T04:52:18;101934.09;;;-5.53;60.02
44839;BME280;30576;42.098;24.876;2023-02-10T04:54:43;101934.38;;;-5.40;60.01
44839;BME280;30576;42.098;24.876;2023-02-10T04:57:08;101930.38;;;-5.47;60.19
44839;BME280;30576;42.098;24.876;2023-02-10T04:59:34;101928.03;;;-5.74;60.04
44839;BME280;30576;42.098;24.876;2023-02-10T05:01:59;101924.59;;;-6.15;61.11
44839;BME280;30576;42.098;24.876;2023-02-10T05:04:24;101924.19;;;-6.49;62.83
44839;BME280;30576;42.098;24.876;2023-02-10T05:06:50;101916.84;;;-6.92;64.97
44839;BME280;30576;42.098;24.876;2023-02-10T05:09:15;101927.75;;;-6.95;66.43
44839;BME280;30576;42.098;24.876;2023-02-10T05:11:40;101922.97;;;-6.52;65.15
44839;BME280;30576;42.098;24.876;2023-02-10T05:14:07;101931.16;;;-6.08;64.46
44839;BME280;30576;42.098;24.876;2023-02-10T05:16:32;101932.06;;;-6.07;63.34
44839;BME280;30576;42.098;24.876;2023-02-10T05:18:58;101929.13;;;-5.91;62.98
44839;BME280;30576;42.098;24.876;2023-02-10T05:21:23;101931.03;;;-5.89;62.34
44839;BME280;30576;42.098;24.876;2023-02-10T05:23:48;101934.53;;;-5.88;61.99
44839;BME280;30576;42.098;24.876;2023-02-10T05:26:13;101933.41;;;-5.82;61.97
44839;BME280;30576;42.098;24.876;2023-02-10T05:28:39;101935.72;;;-6.24;61.52
44839;BME280;30576;42.098;24.876;2023-02-10T05:31:04;101940.69;;;-5.97;62.13
44839;BME280;30576;42.098;24.876;2023-02-10T05:33:31;101935.47;;;-5.67;62.32
44839;BME280;30576;42.098;24.876;2023-02-10T05:35:57;101939.38;;;-5.52;61.21
44839;BME280;30576;42.098;24.876;2023-02-10T05:38:22;101936.13;;;-5.60;61.72
44839;BME280;30576;42.098;24.876;2023-02-10T05:40:48;101936.41;;;-5.67;62.11
44839;BME280;30576;42.098;24.876;2023-02-10T05:43:13;101942.16;;;-5.69;62.78
44839;BME280;30576;42.098;24.876;2023-02-10T05:45:38;101932.53;;;-5.62;62.06
44839;BME280;30576;42.098;24.876;2023-02-10T05:48:05;101934.63;;;-5.58;62.90
44839;BME280;30576;42.098;24.876;2023-02-10T05:50:31;101935.63;;;-5.55;62.58
44839;BME280;30576;42.098;24.876;2023-02-10T05:52:57;101949.38;;;-5.65;62.95
44839;BME280;30576;42.098;24.876;2023-02-10T05:55:22;101942.47;;;-5.56;62.86
44839;BME280;30576;42.098;24.876;2023-02-10T05:57:47;101948.78;;;-5.32;62.54
44839;BME280;30576;42.098;24.876;2023-02-10T06:00:13;101947.75;;;-5.13;62.39
44839;BME280;30576;42.098;24.876;2023-02-10T06:02:38;101958.44;;;-4.88;61.45
44839;BME280;30576;42.098;24.876;2023-02-10T06:05:04;101957.56;;;-5.09;61.17
44839;BME280;30576;42.098;24.876;2023-02-10T06:07:29;101953.44;;;-5.28;61.61
44839;BME280;30576;42.098;24.876;2023-02-10T06:09:54;101962.19;;;-5.15;61.93
44839;BME280;30576;42.098;24.876;2023-02-10T06:12:20;101961.03;;;-4.98;61.90
44839;BME280;30576;42.098;24.876;2023-02-10T06:14:45;101956.38;;;-4.92;61.84
44839;BME280;30576;42.098;24.876;2023-02-10T06:17:10;101960.06;;;-4.47;63.66
44839;BME280;30576;42.098;24.876;2023-02-10T06:19:36;101961.84;;;-4.04;62.13
44839;BME280;30576;42.098;24.876;2023-02-10T06:22:02;101961.25;;;-4.22;59.74
44839;BME280;30576;42.098;24.876;2023-02-10T06:24:27;101967.34;;;-4.21;60.54
44839;BME280;30576;42.098;24.876;2023-02-10T06:26:52;101967.78;;;-4.47;60.85
44839;BME280;30576;42.098;24.876;2023-02-10T06:29:18;101974.59;;;-4.38;60.80
44839;BME280;30576;42.098;24.876;2023-02-10T06:31:43;101978.16;;;-4.25;60.42
44839;BME280;30576;42.098;24.876;2023-02-10T06:34:08;101975.84;;;-4.33;59.47
44839;BME280;30576;42.098;24.876;2023-02-10T06:36:34;101969.81;;;-4.33;59.64
44839;BME280;30576;42.098;24.876;2023-02-10T06:38:59;101973.06;;;-4.46;60.11
44839;BME280;30576;42.098;24.876;2023-02-10T06:41:25;101971.75;;;-4.30;59.81
44839;BME280;30576;42.098;24.876;2023-02-10T06:43:50;101982.06;;;-3.98;59.92
44839;BME280;30576;42.098;24.876;2023-02-10T06:46:16;101978.31;;;-3.91;59.50
44839;BME280;30576;42.098;24.876;2023-02-10T06:48:41;101974.13;;;-3.57;59.40
44839;BME280;30576;42.098;24.876;2023-02-10T06:51:08;101970.16;;;-3.42;57.96
44839;BME280;30576;42.098;24.876;2023-02-10T06:53:33;101976.41;;;-3.50;59.59
44839;BME280;30576;42.098;24.876;2023-02-10T06:55:58;101977.50;;;-3.58;57.84
44839;BME280;30576;42.098;24.876;2023-02-10T06:58:25;101970.25;;;-3.52;58.42
44839;BME280;30576;42.098;24.876;2023-02-10T07:00:50;101968.91;;;-3.47;58.60
44839;BME280;30576;42.098;24.876;2023-02-10T07:03:15;101968.72;;;-3.82;59.89
44839;BME280;30576;42.098;24.876;2023-02-10T07:05:41;101966.47;;;-3.67;59.46
44839;BME280;30576;42.098;24.876;2023-02-10T07:08:06;101967.66;;;-3.52;59.37
44839;BME280;30576;42.098;24.876;2023-02-10T07:10:32;101961.13;;;-3.02;58.66
44839;BME280;30576;42.098;24.876;2023-02-10T07:12:57;101966.56;;;-2.76;58.36
44839;BME280;30576;42.098;24.876;2023-02-10T07:15:22;101968.88;;;-3.02;57.71
44839;BME280;30576;42.098;24.876;2023-02-10T07:17:48;101964.75;;;-2.89;57.97
44839;BME280;30576;42.098;24.876;2023-02-10T07:20:15;101970.94;;;-2.75;57.09
44839;BME280;30576;42.098;24.876;2023-02-10T07:22:41;101973.66;;;-2.26;56.63
44839;BME280;30576;42.098;24.876;2023-02-10T07:25:06;101960.47;;;-1.93;56.97
44839;BME280;30576;42.098;24.876;2023-02-10T07:27:31;101966.31;;;-1.84;56.03
44839;BME280;30576;42.098;24.876;2023-02-10T07:29:57;101976.09;;;-1.68;55.06
44839;BME280;30576;42.098;24.876;2023-02-10T07:32:22;101969.31;;;-1.54;54.15
44839;BME280;30576;42.098;24.876;2023-02-10T07:34:47;101967.19;;;-1.35;54.23
44839;BME280;30576;42.098;24.876;2023-02-10T07:37:14;101970.19;;;-1.29;52.68
44839;BME280;30576;42.098;24.876;2023-02-10T07:39:40;101970.97;;;-1.55;53.25
44839;BME280;30576;42.098;24.876;2023-02-10T07:42:05;101966.41;;;-1.34;54.14
44839;BME280;30576;42.098;24.876;2023-02-10T07:44:30;101977.00;;;-0.92;53.11
44839;BME280;30576;42.098;24.876;2023-02-10T07:46:55;101973.53;;;-0.93;51.74
44839;BME280;30576;42.098;24.876;2023-02-10T07:49:21;101965.53;;;-1.21;52.58
44839;BME280;30576;42.098;24.876;2023-02-10T07:51:46;101963.16;;;-1.80;52.74
44839;BME280;30576;42.098;24.876;2023-02-10T07:54:12;101960.94;;;-1.50;53.58
44839;BME280;30576;42.098;24.876;2023-02-10T07:56:37;101958.81;;;-1.05;51.64
44839;BME280;30576;42.098;24.876;2023-02-10T07:59:02;101962.09;;;-0.83;50.94
44839;BME280;30576;42.098;24.876;2023-02-10T08:01:28;101959.75;;;-1.05;50.69
44839;BME280;30576;42.098;24.876;2023-02-10T08:03:53;101964.25;;;-1.65;50.98
44839;BME280;30576;42.098;24.876;2023-02-10T08:06:19;101960.53;;;-1.31;50.11
44839;BME280;30576;42.098;24.876;2023-02-10T08:08:45;101961.78;;;-0.87;50.49
44839;BME280;30576;42.098;24.876;2023-02-10T08:11:11;101963.13;;;-1.06;49.72
44839;BME280;30576;42.098;24.876;2023-02-10T08:13:36;101955.88;;;-1.49;49.76
44839;BME280;30576;42.098;24.876;2023-02-10T08:16:05;101955.19;;;-1.21;50.85
44839;BME280;30576;42.098;24.876;2023-02-10T08:18:32;101958.88;;;-0.92;49.41
44839;BME280;30576;42.098;24.876;2023-02-10T08:20:58;101958.03;;;-0.66;49.12
44839;BME280;30576;42.098;24.876;2023-02-10T08:23:24;101955.97;;;-0.45;48.67
44839;BME280;30576;42.098;24.876;2023-02-10T08:25:49;101953.56;;;-0.02;47.35
44839;BME280;30576;42.098;24.876;2023-02-10T08:28:16;101954.81;;;0.18;46.79
44839;BME280;30576;42.098;24.876;2023-02-10T08:30:41;101952.56;;;-0.44;46.73
44839;BME280;30576;42.098;24.876;2023-02-10T08:33:06;101956.38;;;-0.12;46.96
44839;BME280;30576;42.098;24.876;2023-02-10T08:35:32;101953.69;;;-0.40;46.59
44839;BME280;30576;42.098;24.876;2023-02-10T08:37:57;101953.34;;;-0.58;46.56
44839;BME280;30576;42.098;24.876;2023-02-10T08:40:22;101953.38;;;-0.31;47.42
44839;BME280;30576;42.098;24.876;2023-02-10T08:42:48;101958.28;;;-0.09;46.09
44839;BME280;30576;42.098;24.876;2023-02-10T08:45:13;101954.06;;;-0.21;45.82
44839;BME280;30576;42.098;24.876;2023-02-10T08:47:38;101943.91;;;-0.44;46.71
44839;BME280;30576;42.098;24.876;2023-02-10T08:50:04;101950.38;;;-0.24;46.90
44839;BME280;30576;42.098;24.876;2023-02-10T08:52:29;101938.00;;;-0.28;45.78
44839;BME280;30576;42.098;24.876;2023-02-10T08:54:55;101942.31;;;0.26;45.79
44839;BME280;30576;42.098;24.876;2023-02-10T08:57:21;101936.97;;;0.51;46.86
44839;BME280;30576;42.098;24.876;2023-02-10T08:59:46;101948.06;;;0.35;44.88
44839;BME280;30576;42.098;24.876;2023-02-10T09:02:12;101936.19;;;-0.03;45.44
44839;BME280;30576;42.098;24.876;2023-02-10T09:04:38;101950.97;;;-0.15;45.33
44839;BME280;30576;42.098;24.876;2023-02-10T09:07:03;101933.69;;;-0.01;45.70
44839;BME280;30576;42.098;24.876;2023-02-10T09:09:28;101938.53;;;0.21;45.28
44839;BME280;30576;42.098;24.876;2023-02-10T09:11:54;101935.75;;;0.18;44.51
44839;BME280;30576;42.098;24.876;2023-02-10T09:14:20;101941.44;;;0.12;44.01
44839;BME280;30576;42.098;24.876;2023-02-10T09:16:45;101927.97;;;0.46;45.58
44839;BME280;30576;42.098;24.876;2023-02-10T09:19:10;101936.69;;;0.62;43.80
44839;BME280;30576;42.098;24.876;2023-02-10T09:21:36;101936.53;;;0.30;44.32
44839;BME280;30576;42.098;24.876;2023-02-10T09:24:01;101926.22;;;0.32;44.30
44839;BME280;30576;42.098;24.876;2023-02-10T09:26:26;101915.72;;;0.44;43.84
44839;BME280;30576;42.098;24.876;2023-02-10T09:28:52;101927.47;;;0.10;44.42
44839;BME280;30576;42.098;24.876;2023-02-10T09:31:17;101913.88;;;0.71;43.73
44839;BME280;30576;42.098;24.876;2023-02-10T09:33:43;101908.34;;;0.80;43.40
44839;BME280;30576;42.098;24.876;2023-02-10T09:36:16;101904.59;;;0.89;43.36
44839;BME280;30576;42.098;24.876;2023-02-10T09:38:42;101902.09;;;0.76;44.35
44839;BME280;30576;42.098;24.876;2023-02-10T09:46:08;101894.00;;;0.86;42.39
44839;BME280;30576;42.098;24.876;2023-02-10T09:48:50;101890.97;;;0.79;43.55
44839;BME280;30576;42.098;24.876;2023-02-10T09:51:24;101869.38;;;1.24;41.50
44839;BME280;30576;42.098;24.876;2023-02-10T09:53:55;101880.22;;;0.87;42.53
44839;BME280;30576;42.098;24.876;2023-02-10T09:56:21;101871.34;;;1.29;40.93
44839;BME280;30576;42.098;24.876;2023-02-10T09:58:56;101875.44;;;1.55;41.43
44839;BME280;30576;42.098;24.876;2023-02-10T10:01:23;101864.22;;;2.04;42.47
44839;BME280;30576;42.098;24.876;2023-02-10T10:03:59;101866.56;;;1.83;40.48
44839;BME280;30576;42.098;24.876;2023-02-10T10:06:33;101861.47;;;1.84;41.01
44839;BME280;30576;42.098;24.876;2023-02-10T10:09:05;101861.47;;;1.84;41.04
44839;BME280;30576;42.098;24.876;2023-02-10T10:11:51;101855.22;;;2.30;39.27
44839;BME280;30576;42.098;24.876;2023-02-10T10:19:32;101828.88;;;2.07;39.10
44839;BME280;30576;42.098;24.876;2023-02-10T10:24:52;101822.22;;;2.63;39.64
44839;BME280;30576;42.098;24.876;2023-02-10T10:27:30;101816.63;;;2.56;38.51
44839;BME280;30576;42.098;24.876;2023-02-10T10:32:41;101813.53;;;2.81;38.06
44839;BME280;30576;42.098;24.876;2023-02-10T10:35:15;101807.03;;;2.89;38.15
44839;BME280;30576;42.098;24.876;2023-02-10T10:37:41;101799.25;;;2.73;37.52
44839;BME280;30576;42.098;24.876;2023-02-10T10:40:07;101792.28;;;2.55;38.56
44839;BME280;30576;42.098;24.876;2023-02-10T10:45:05;101787.94;;;3.08;37.36
44839;BME280;30576;42.098;24.876;2023-02-10T10:48:14;101787.81;;;3.23;38.00
44839;BME280;30576;42.098;24.876;2023-02-10T10:50:20;101780.50;;;3.34;37.80
44839;BME280;30576;42.098;24.876;2023-02-10T10:52:46;101775.78;;;3.45;37.44
44839;BME280;30576;42.098;24.876;2023-02-10T10:55:19;101776.66;;;3.63;36.70
44839;BME280;30576;42.098;24.876;2023-02-10T10:57:46;101777.56;;;2.92;36.41
44839;BME280;30576;42.098;24.876;2023-02-10T11:02:50;101771.03;;;3.18;37.75
44839;BME280;30576;42.098;24.876;2023-02-10T11:05:15;101763.72;;;3.47;37.25
44839;BME280;30576;42.098;24.876;2023-02-10T11:07:41;101759.50;;;3.50;35.84
44839;BME280;30576;42.098;24.876;2023-02-10T11:10:15;101749.31;;;3.74;35.76
44839;BME280;30576;42.098;24.876;2023-02-10T11:12:45;101739.16;;;3.81;35.94
44839;BME280;30576;42.098;24.876;2023-02-10T11:17:51;101745.06;;;3.57;35.21
44839;BME280;30576;42.098;24.876;2023-02-10T11:20:28;101733.25;;;3.65;35.49
44839;BME280;30576;42.098;24.876;2023-02-10T11:23:01;101732.41;;;3.86;35.12
44839;BME280;30576;42.098;24.876;2023-02-10T11:25:33;101733.16;;;3.64;34.93
44839;BME280;30576;42.098;24.876;2023-02-10T11:28:00;101723.75;;;3.67;34.70
44839;BME280;30576;42.098;24.876;2023-02-10T11:30:30;101727.13;;;3.84;35.49
44839;BME280;30576;42.098;24.876;2023-02-10T11:32:56;101727.06;;;3.83;35.32
44839;BME280;30576;42.098;24.876;2023-02-10T11:35:21;101726.25;;;4.03;35.20
44839;BME280;30576;42.098;24.876;2023-02-10T11:37:51;101720.53;;;3.73;34.68
44839;BME280;30576;42.098;24.876;2023-02-10T11:40:18;101720.19;;;3.65;35.01
44839;BME280;30576;42.098;24.876;2023-02-10T11:42:48;101713.19;;;3.84;34.36
44839;BME280;30576;42.098;24.876;2023-02-10T11:45:21;101712.41;;;3.47;34.93
44839;BME280;30576;42.098;24.876;2023-02-10T11:47:47;101710.59;;;3.27;34.46
44839;BME280;30576;42.098;24.876;2023-02-10T11:50:18;101714.28;;;3.12;35.09
44839;BME280;30576;42.098;24.876;2023-02-10T11:52:44;101694.66;;;3.20;34.92
44839;BME280;30576;42.098;24.876;2023-02-10T11:55:14;101699.41;;;3.49;35.61
44839;BME280;30576;42.098;24.876;2023-02-10T11:57:51;101698.41;;;3.84;34.69
44839;BME280;30576;42.098;24.876;2023-02-10T12:00:58;101691.63;;;3.88;34.10
44839;BME280;30576;42.098;24.876;2023-02-10T12:03:32;101687.63;;;3.76;35.46
44839;BME280;30576;42.098;24.876;2023-02-10T12:06:03;101692.56;;;3.90;34.32
44839;BME280;30576;42.098;24.876;2023-02-10T12:11:02;101679.63;;;4.12;34.26
44839;BME280;30576;42.098;24.876;2023-02-10T12:13:43;101682.31;;;4.35;33.91
44839;BME280;30576;42.098;24.876;2023-02-10T12:16:22;101679.38;;;3.87;34.01
44839;BME280;30576;42.098;24.876;2023-02-10T12:18:56;101662.91;;;3.68;34.03
44839;BME280;30576;42.098;24.876;2023-02-10T12:26:43;101658.56;;;3.88;33.24
44839;BME280;30576;42.098;24.876;2023-02-10T12:39:28;101642.94;;;4.52;31.91
44839;BME280;30576;42.098;24.876;2023-02-10T12:41:58;101626.56;;;4.35;32.55
44839;BME280;30576;42.098;24.876;2023-02-10T12:44:38;101632.47;;;4.52;33.40
44839;BME280;30576;42.098;24.876;2023-02-10T12:54:32;101620.56;;;4.37;31.93
44839;BME280;30576;42.098;24.876;2023-02-10T12:57:04;101620.81;;;4.22;32.84
44839;BME280;30576;42.098;24.876;2023-02-10T12:59:35;101622.28;;;4.37;32.37
44839;BME280;30576;42.098;24.876;2023-02-10T13:02:06;101621.78;;;4.03;32.78
44839;BME280;30576;42.098;24.876;2023-02-10T13:04:38;101620.13;;;4.26;31.79
44839;BME280;30576;42.098;24.876;2023-02-10T13:12:26;101617.09;;;4.59;31.32
44839;BME280;30576;42.098;24.876;2023-02-10T13:14:53;101615.66;;;4.45;31.76
44839;BME280;30576;42.098;24.876;2023-02-10T13:17:24;101614.25;;;4.32;32.50
44839;BME280;30576;42.098;24.876;2023-02-10T13:19:52;101616.28;;;4.18;32.20
44839;BME280;30576;42.098;24.876;2023-02-10T13:24:50;101616.97;;;4.56;31.92
44839;BME280;30576;42.098;24.876;2023-02-10T13:27:28;101608.63;;;4.44;32.02
44839;BME280;30576;42.098;24.876;2023-02-10T13:34:57;101599.59;;;4.79;30.75
44839;BME280;30576;42.098;24.876;2023-02-10T13:37:40;101609.75;;;4.72;31.75
44839;BME280;30576;42.098;24.876;2023-02-10T13:42:38;101598.72;;;5.03;30.52
44839;BME280;30576;42.098;24.876;2023-02-10T13:47:42;101602.06;;;4.76;31.27
44839;BME280;30576;42.098;24.876;2023-02-10T13:53:00;101601.38;;;4.80;31.78
44839;BME280;30576;42.098;24.876;2023-02-10T13:55:37;101605.28;;;4.92;31.19
44839;BME280;30576;42.098;24.876;2023-02-10T14:00:28;101609.66;;;5.15;30.70
44839;BME280;30576;42.098;24.876;2023-02-10T14:03:18;101602.66;;;4.92;30.53
44839;BME280;30576;42.098;24.876;2023-02-10T14:13:39;101603.59;;;4.48;31.49
44839;BME280;30576;42.098;24.876;2023-02-10T14:18:40;101596.13;;;5.03;30.96
44839;BME280;30576;42.098;24.876;2023-02-10T14:21:14;101595.00;;;4.96;30.76
44839;BME280;30576;42.098;24.876;2023-02-10T14:23:41;101599.53;;;5.00;30.34
44839;BME280;30576;42.098;24.876;2023-02-10T14:26:14;101597.03;;;5.04;30.62
44839;BME280;30576;42.098;24.876;2023-02-10T14:28:40;101590.78;;;5.00;30.84
44839;BME280;30576;42.098;24.876;2023-02-10T14:34:05;101592.38;;;4.96;31.15
44839;BME280;30576;42.098;24.876;2023-02-10T14:36:41;101584.66;;;4.99;30.83
44839;BME280;30576;42.098;24.876;2023-02-10T14:39:14;101585.97;;;4.88;30.67